createdAt,value
2016-12-04T00:00:09.591Z,17.88
2016-12-04T00:00:41.918Z,17.87
2016-12-04T00:01:14.220Z,17.92
2016-12-04T00:01:46.529Z,17.88
2016-12-04T00:02:18.834Z,17.87
2016-12-04T00:02:51.150Z,17.9
2016-12-04T00:03:23.469Z,17.86
2016-12-04T00:03:55.771Z,17.88
2016-12-04T00:04:28.091Z,17.88
2016-12-04T00:05:00.391Z,17.94
2016-12-04T00:05:32.722Z,17.87
2016-12-04T00:06:05.060Z,17.87
2016-12-04T00:06:37.404Z,17.83
2016-12-04T00:07:09.740Z,17.87
2016-12-04T00:07:42.061Z,17.9
2016-12-04T00:08:14.374Z,17.88
2016-12-04T00:08:46.708Z,17.88
2016-12-04T00:09:19.026Z,17.87
2016-12-04T00:09:51.336Z,17.9
2016-12-04T00:10:23.674Z,17.95
2016-12-04T00:10:56.004Z,17.88
2016-12-04T00:11:28.330Z,17.87
2016-12-04T00:12:00.653Z,17.88
2016-12-04T00:12:32.963Z,17.86
2016-12-04T00:13:05.282Z,17.9
2016-12-04T00:13:37.598Z,17.86
2016-12-04T00:14:09.941Z,17.86
2016-12-04T00:14:42.246Z,17.94
2016-12-04T00:15:14.577Z,17.92
2016-12-04T00:15:46.892Z,17.88
2016-12-04T00:16:19.210Z,17.88
2016-12-04T00:16:51.520Z,17.87
2016-12-04T00:17:23.842Z,17.94
2016-12-04T00:17:56.142Z,17.88
2016-12-04T00:18:28.437Z,17.9
2016-12-04T00:19:00.764Z,17.88
2016-12-04T00:19:33.090Z,17.88
2016-12-04T00:20:05.416Z,17.87
2016-12-04T00:20:37.728Z,17.88
2016-12-04T00:21:10.028Z,17.92
2016-12-04T00:21:42.339Z,17.9
2016-12-04T00:22:14.652Z,17.95
2016-12-04T00:22:46.961Z,17.87
2016-12-04T00:23:19.274Z,17.9
2016-12-04T00:23:51.611Z,17.88
2016-12-04T00:24:23.918Z,17.88
2016-12-04T00:24:56.222Z,17.87
2016-12-04T00:25:28.543Z,17.92
2016-12-04T00:26:00.878Z,17.84
2016-12-04T00:26:33.190Z,17.87
2016-12-04T00:27:05.512Z,17.94
2016-12-04T00:27:37.835Z,17.86
2016-12-04T00:28:10.157Z,17.86
2016-12-04T00:28:42.467Z,17.92
2016-12-04T00:29:14.753Z,17.92
2016-12-04T00:29:47.075Z,17.92
2016-12-04T00:30:19.387Z,17.95
2016-12-04T00:30:51.704Z,17.88
2016-12-04T00:31:24.031Z,17.87
2016-12-04T00:31:56.357Z,17.92
2016-12-04T00:32:28.674Z,17.94
2016-12-04T00:33:00.996Z,17.87
2016-12-04T00:33:33.313Z,17.87
2016-12-04T00:34:05.613Z,17.94
2016-12-04T00:34:37.919Z,17.9
2016-12-04T00:35:10.243Z,17.94
2016-12-04T00:35:42.564Z,17.92
2016-12-04T00:36:14.879Z,17.88
2016-12-04T00:36:47.206Z,17.9
2016-12-04T00:37:19.521Z,17.9
2016-12-04T00:37:51.840Z,17.88
2016-12-04T00:38:24.156Z,17.86
2016-12-04T00:38:56.470Z,17.94
2016-12-04T00:39:28.776Z,17.9
2016-12-04T00:40:01.137Z,17.86
2016-12-04T00:40:33.437Z,17.88
2016-12-04T00:41:05.755Z,17.87
2016-12-04T00:41:38.062Z,17.87
2016-12-04T00:42:10.396Z,17.94
2016-12-04T00:42:42.728Z,17.88
2016-12-04T00:43:15.035Z,17.88
2016-12-04T00:43:47.343Z,17.88
2016-12-04T00:44:19.653Z,17.9
2016-12-04T00:44:51.960Z,17.9
2016-12-04T00:45:24.266Z,17.87
2016-12-04T00:45:56.626Z,17.88
2016-12-04T00:46:28.932Z,17.88
2016-12-04T00:47:01.232Z,17.92
2016-12-04T00:47:33.534Z,17.88
2016-12-04T00:48:05.839Z,17.87
2016-12-04T00:48:38.149Z,17.9
2016-12-04T00:49:10.467Z,17.95
2016-12-04T00:49:42.775Z,17.87
2016-12-04T00:50:15.089Z,17.92
2016-12-04T00:50:47.400Z,17.88
2016-12-04T00:51:19.737Z,17.9
2016-12-04T00:51:52.057Z,17.94
2016-12-04T00:52:24.379Z,17.87
2016-12-04T00:52:56.703Z,17.98
2016-12-04T00:53:29.024Z,17.92
2016-12-04T00:54:01.329Z,17.88
2016-12-04T00:54:33.639Z,17.87
2016-12-04T00:55:05.949Z,17.88
2016-12-04T00:55:38.256Z,17.96
2016-12-04T00:56:10.576Z,17.9
2016-12-04T00:56:42.850Z,17.88
2016-12-04T00:57:15.136Z,17.94
2016-12-04T00:57:47.470Z,17.88
2016-12-04T00:58:19.779Z,17.92
2016-12-04T00:58:52.130Z,17.96
2016-12-04T00:59:24.423Z,17.94
2016-12-04T00:59:56.745Z,17.9
2016-12-04T01:00:29.061Z,17.87
2016-12-04T01:01:01.423Z,17.95
2016-12-04T01:01:33.735Z,17.8
2016-12-04T01:02:06.052Z,17.96
2016-12-04T01:02:38.375Z,17.95
2016-12-04T01:03:10.698Z,17.94
2016-12-04T01:03:43.024Z,17.9
2016-12-04T01:04:15.354Z,17.94
2016-12-04T01:04:47.658Z,17.88
2016-12-04T01:05:19.984Z,17.92
2016-12-04T01:05:52.339Z,17.88
2016-12-04T01:06:24.631Z,17.83
2016-12-04T01:06:56.954Z,17.87
2016-12-04T01:07:29.263Z,17.87
2016-12-04T01:08:01.584Z,17.96
2016-12-04T01:08:33.880Z,17.88
2016-12-04T01:09:06.188Z,17.88
2016-12-04T01:09:38.504Z,17.94
2016-12-04T01:10:10.836Z,17.92
2016-12-04T01:10:43.141Z,17.94
2016-12-04T01:11:15.477Z,17.94
2016-12-04T01:11:47.818Z,17.92
2016-12-04T01:12:20.134Z,17.87
2016-12-04T01:12:52.447Z,17.86
2016-12-04T01:13:24.776Z,17.86
2016-12-04T01:13:57.087Z,17.92
2016-12-04T01:14:29.399Z,17.95
2016-12-04T01:15:01.701Z,17.88
2016-12-04T01:15:34.018Z,17.88
2016-12-04T01:16:06.324Z,17.86
2016-12-04T01:16:38.647Z,17.88
2016-12-04T01:17:10.947Z,17.9
2016-12-04T01:17:43.263Z,17.96
2016-12-04T01:18:15.559Z,17.87
2016-12-04T01:18:47.879Z,17.88
2016-12-04T01:19:20.180Z,17.88
2016-12-04T01:19:52.480Z,17.87
2016-12-04T01:20:24.784Z,17.88
2016-12-04T01:20:57.095Z,17.88
2016-12-04T01:21:29.406Z,17.87
2016-12-04T01:22:01.701Z,17.9
2016-12-04T01:22:34.012Z,17.87
2016-12-04T01:23:06.316Z,17.87
2016-12-04T01:23:38.636Z,17.95
2016-12-04T01:24:10.937Z,17.87
2016-12-04T01:24:43.252Z,17.87
2016-12-04T01:25:15.553Z,17.87
2016-12-04T01:25:47.847Z,17.88
2016-12-04T01:26:20.141Z,17.92
2016-12-04T01:26:52.453Z,17.9
2016-12-04T01:27:24.763Z,17.86
2016-12-04T01:27:57.081Z,17.9
2016-12-04T01:28:29.391Z,17.9
2016-12-04T01:29:01.701Z,17.92
2016-12-04T01:29:34.001Z,17.88
2016-12-04T01:30:06.306Z,17.9
2016-12-04T01:30:38.605Z,17.9
2016-12-04T01:31:10.929Z,17.88
2016-12-04T01:31:43.214Z,17.92
2016-12-04T01:32:15.543Z,17.88
2016-12-04T01:32:47.854Z,17.9
2016-12-04T01:33:20.171Z,17.92
2016-12-04T01:33:52.482Z,17.88
2016-12-04T01:34:24.808Z,17.87
2016-12-04T01:34:57.130Z,17.92
2016-12-04T01:35:29.431Z,17.87
2016-12-04T01:36:01.739Z,17.81
2016-12-04T01:36:34.047Z,17.87
2016-12-04T01:37:06.352Z,17.88
2016-12-04T01:37:38.696Z,17.88
2016-12-04T01:38:11.013Z,17.87
2016-12-04T01:38:43.325Z,17.88
2016-12-04T01:39:15.646Z,17.87
2016-12-04T01:39:47.951Z,17.92
2016-12-04T01:40:20.254Z,17.88
2016-12-04T01:40:52.576Z,17.88
2016-12-04T01:41:24.887Z,17.87
2016-12-04T01:41:57.208Z,17.86
2016-12-04T01:42:29.536Z,17.9
2016-12-04T01:43:01.845Z,17.9
2016-12-04T01:43:34.164Z,17.87
2016-12-04T01:44:06.487Z,17.87
2016-12-04T01:44:38.796Z,17.83
2016-12-04T01:45:11.142Z,17.86
2016-12-04T01:45:43.446Z,17.84
2016-12-04T01:46:15.752Z,17.86
2016-12-04T01:46:48.095Z,17.84
2016-12-04T01:47:20.401Z,17.9
2016-12-04T01:47:52.711Z,17.87
2016-12-04T01:48:25.013Z,17.86
2016-12-04T01:48:57.306Z,17.84
2016-12-04T01:49:29.630Z,17.84
2016-12-04T01:50:01.945Z,17.86
2016-12-04T01:50:34.267Z,17.84
2016-12-04T01:51:06.578Z,17.84
2016-12-04T01:51:38.897Z,17.83
2016-12-04T01:52:11.227Z,17.84
2016-12-04T01:52:43.547Z,17.84
2016-12-04T01:53:15.853Z,17.88
2016-12-04T01:53:48.159Z,17.83
2016-12-04T01:54:20.476Z,17.87
2016-12-04T01:54:52.783Z,17.84
2016-12-04T01:55:25.126Z,17.86
2016-12-04T01:55:57.444Z,17.84
2016-12-04T01:56:29.788Z,17.9
2016-12-04T01:57:02.110Z,17.83
2016-12-04T01:57:34.430Z,17.84
2016-12-04T01:58:06.785Z,17.88
2016-12-04T01:58:39.091Z,17.84
2016-12-04T01:59:11.406Z,17.81
2016-12-04T01:59:43.702Z,17.79
2016-12-04T02:00:16.013Z,17.87
2016-12-04T02:00:48.338Z,17.87
2016-12-04T02:01:20.641Z,17.84
2016-12-04T02:01:52.953Z,17.87
2016-12-04T02:02:25.271Z,17.81
2016-12-04T02:02:57.602Z,17.83
2016-12-04T02:03:29.917Z,17.83
2016-12-04T02:04:02.211Z,17.83
2016-12-04T02:04:34.520Z,17.84
2016-12-04T02:05:06.845Z,17.83
2016-12-04T02:05:39.155Z,17.76
2016-12-04T02:06:11.460Z,17.81
2016-12-04T02:06:43.775Z,17.8
2016-12-04T02:07:16.093Z,17.84
2016-12-04T02:07:48.417Z,17.84
2016-12-04T02:08:20.721Z,17.83
2016-12-04T02:08:53.056Z,17.84
2016-12-04T02:09:25.388Z,17.8
2016-12-04T02:09:57.709Z,17.81
2016-12-04T02:10:30.015Z,17.79
2016-12-04T02:11:02.332Z,17.83
2016-12-04T02:11:34.670Z,17.8
2016-12-04T02:12:06.999Z,17.84
2016-12-04T02:12:39.318Z,17.83
2016-12-04T02:13:11.637Z,17.76
2016-12-04T02:13:43.944Z,17.87
2016-12-04T02:14:16.255Z,17.87
2016-12-04T02:14:48.587Z,17.84
2016-12-04T02:15:20.888Z,17.86
2016-12-04T02:15:53.204Z,17.84
2016-12-04T02:16:25.517Z,17.77
2016-12-04T02:16:57.837Z,17.8
2016-12-04T02:17:30.159Z,17.86
2016-12-04T02:18:02.475Z,17.79
2016-12-04T02:18:34.820Z,17.79
2016-12-04T02:19:07.145Z,17.83
2016-12-04T02:19:39.449Z,17.86
2016-12-04T02:20:11.745Z,17.88
2016-12-04T02:20:44.035Z,17.87
2016-12-04T02:21:16.358Z,17.86
2016-12-04T02:21:48.650Z,17.79
2016-12-04T02:22:20.976Z,17.8
2016-12-04T02:22:53.286Z,17.87
2016-12-04T02:23:25.614Z,17.83
2016-12-04T02:23:57.933Z,17.8
2016-12-04T02:24:30.251Z,17.79
2016-12-04T02:25:02.564Z,17.8
2016-12-04T02:25:34.882Z,17.83
2016-12-04T02:26:07.195Z,17.8
2016-12-04T02:26:39.506Z,17.8
2016-12-04T02:27:11.800Z,17.87
2016-12-04T02:27:44.107Z,17.69
2016-12-04T02:28:16.425Z,17.81
2016-12-04T02:28:48.743Z,17.86
2016-12-04T02:29:21.075Z,17.79
2016-12-04T02:29:53.372Z,17.76
2016-12-04T02:30:25.691Z,17.84
2016-12-04T02:30:58.009Z,17.79
2016-12-04T02:31:30.338Z,17.86
2016-12-04T02:32:02.651Z,17.8
2016-12-04T02:32:34.976Z,17.76
2016-12-04T02:33:07.281Z,17.8
2016-12-04T02:33:39.591Z,17.8
2016-12-04T02:34:11.941Z,17.83
2016-12-04T02:34:44.256Z,17.87
2016-12-04T02:35:16.565Z,17.71
2016-12-04T02:35:48.891Z,17.84
2016-12-04T02:36:21.201Z,17.81
2016-12-04T02:36:53.501Z,17.81
2016-12-04T02:37:25.833Z,17.77
2016-12-04T02:37:58.138Z,17.86
2016-12-04T02:38:30.440Z,17.83
2016-12-04T02:39:02.754Z,17.87
2016-12-04T02:39:35.086Z,17.77
2016-12-04T02:40:07.417Z,17.8
2016-12-04T02:40:39.720Z,17.81
2016-12-04T02:41:12.055Z,17.76
2016-12-04T02:41:44.371Z,17.77
2016-12-04T02:42:16.699Z,17.83
2016-12-04T02:42:49.011Z,17.83
2016-12-04T02:43:21.310Z,17.87
2016-12-04T02:43:53.629Z,17.81
2016-12-04T02:44:25.971Z,17.84
2016-12-04T02:44:58.282Z,17.83
2016-12-04T02:45:30.601Z,17.8
2016-12-04T02:46:02.905Z,17.83
2016-12-04T02:46:35.219Z,17.81
2016-12-04T02:47:07.555Z,17.76
2016-12-04T02:47:39.855Z,17.86
2016-12-04T02:48:12.170Z,17.8
2016-12-04T02:48:44.483Z,17.76
2016-12-04T02:49:16.802Z,17.83
2016-12-04T02:49:49.129Z,17.8
2016-12-04T02:50:21.445Z,17.83
2016-12-04T02:50:53.768Z,17.8
2016-12-04T02:51:26.077Z,17.83
2016-12-04T02:51:58.398Z,17.86
2016-12-04T02:52:30.729Z,17.76
2016-12-04T02:53:03.052Z,17.83
2016-12-04T02:53:35.372Z,17.84
2016-12-04T02:54:07.671Z,17.77
2016-12-04T02:54:39.987Z,17.83
2016-12-04T02:55:12.290Z,17.79
2016-12-04T02:55:44.629Z,17.8
2016-12-04T02:56:16.928Z,17.77
2016-12-04T02:56:49.246Z,17.84
2016-12-04T02:57:21.556Z,17.86
2016-12-04T02:57:53.888Z,17.84
2016-12-04T02:58:26.186Z,17.84
2016-12-04T02:58:58.488Z,17.81
2016-12-04T02:59:30.788Z,17.87
2016-12-04T03:00:03.085Z,17.86
2016-12-04T03:00:35.433Z,17.84
2016-12-04T03:01:07.757Z,17.8
2016-12-04T03:01:40.082Z,17.81
2016-12-04T03:02:12.386Z,17.81
2016-12-04T03:02:44.694Z,17.86
2016-12-04T03:03:17.001Z,17.83
2016-12-04T03:03:49.309Z,17.81
2016-12-04T03:04:21.616Z,17.8
2016-12-04T03:04:53.968Z,17.8
2016-12-04T03:05:26.275Z,17.76
2016-12-04T03:05:58.590Z,17.8
2016-12-04T03:06:30.894Z,17.8
2016-12-04T03:07:03.220Z,17.83
2016-12-04T03:07:35.547Z,17.86
2016-12-04T03:08:07.859Z,17.8
2016-12-04T03:08:40.167Z,17.84
2016-12-04T03:09:12.483Z,17.74
2016-12-04T03:09:44.797Z,17.76
2016-12-04T03:10:17.101Z,17.83
2016-12-04T03:10:49.416Z,17.76
2016-12-04T03:11:21.725Z,17.79
2016-12-04T03:11:54.080Z,17.84
2016-12-04T03:12:26.388Z,17.8
2016-12-04T03:12:58.732Z,17.81
2016-12-04T03:13:31.051Z,17.81
2016-12-04T03:14:03.360Z,17.76
2016-12-04T03:14:35.710Z,17.69
2016-12-04T03:15:08.021Z,17.77
2016-12-04T03:15:40.367Z,17.71
2016-12-04T03:16:12.682Z,17.8
2016-12-04T03:16:45.004Z,17.77
2016-12-04T03:17:17.345Z,17.8
2016-12-04T03:17:49.654Z,17.69
2016-12-04T03:18:21.981Z,17.81
2016-12-04T03:18:54.301Z,17.76
2016-12-04T03:19:26.680Z,17.74
2016-12-04T03:19:59.013Z,17.77
2016-12-04T03:20:31.329Z,17.69
2016-12-04T03:21:03.633Z,17.77
2016-12-04T03:21:35.948Z,17.77
2016-12-04T03:22:08.249Z,17.74
2016-12-04T03:22:40.555Z,17.74
2016-12-04T03:23:12.866Z,17.71
2016-12-04T03:23:45.177Z,17.79
2016-12-04T03:24:17.502Z,17.8
2016-12-04T03:24:49.796Z,17.79
2016-12-04T03:25:22.104Z,17.73
2016-12-04T03:25:54.443Z,17.77
2016-12-04T03:26:26.765Z,17.8
2016-12-04T03:26:59.070Z,17.68
2016-12-04T03:27:31.385Z,17.73
2016-12-04T03:28:03.723Z,17.69
2016-12-04T03:28:36.031Z,17.76
2016-12-04T03:29:08.345Z,17.77
2016-12-04T03:29:40.659Z,17.69
2016-12-04T03:30:12.975Z,17.79
2016-12-04T03:30:45.304Z,17.79
2016-12-04T03:31:17.606Z,17.76
2016-12-04T03:31:49.927Z,17.71
2016-12-04T03:32:22.227Z,17.73
2016-12-04T03:32:54.551Z,17.8
2016-12-04T03:33:26.860Z,17.71
2016-12-04T03:33:59.189Z,17.79
2016-12-04T03:34:31.496Z,17.86
2016-12-04T03:35:03.815Z,17.74
2016-12-04T03:35:36.124Z,17.71
2016-12-04T03:36:08.436Z,17.81
2016-12-04T03:36:40.748Z,17.83
2016-12-04T03:37:13.071Z,17.74
2016-12-04T03:37:45.396Z,17.71
2016-12-04T03:38:17.744Z,17.73
2016-12-04T03:38:50.058Z,17.76
2016-12-04T03:39:22.361Z,17.69
2016-12-04T03:39:54.697Z,17.76
2016-12-04T03:40:27.014Z,17.71
2016-12-04T03:40:59.360Z,17.76
2016-12-04T03:41:31.671Z,17.76
2016-12-04T03:42:03.993Z,17.73
2016-12-04T03:42:36.295Z,17.71
2016-12-04T03:43:08.608Z,17.71
2016-12-04T03:43:40.918Z,17.76
2016-12-04T03:44:13.222Z,17.77
2016-12-04T03:44:45.533Z,17.71
2016-12-04T03:45:17.841Z,17.71
2016-12-04T03:45:50.177Z,17.76
2016-12-04T03:46:22.511Z,17.73
2016-12-04T03:46:54.847Z,17.77
2016-12-04T03:47:27.145Z,17.73
2016-12-04T03:47:59.453Z,17.76
2016-12-04T03:48:31.757Z,17.79
2016-12-04T03:49:04.084Z,17.79
2016-12-04T03:49:36.420Z,17.74
2016-12-04T03:50:08.730Z,17.71
2016-12-04T03:50:41.044Z,17.79
2016-12-04T03:51:13.358Z,17.79
2016-12-04T03:51:45.660Z,17.69
2016-12-04T03:52:17.991Z,17.74
2016-12-04T03:52:50.326Z,17.74
2016-12-04T03:53:22.635Z,17.74
2016-12-04T03:53:54.943Z,17.81
2016-12-04T03:54:27.253Z,17.68
2016-12-04T03:54:59.570Z,17.63
2016-12-04T03:55:31.880Z,17.73
2016-12-04T03:56:04.188Z,17.79
2016-12-04T03:56:36.524Z,17.77
2016-12-04T03:57:08.853Z,17.77
2016-12-04T03:57:41.168Z,17.76
2016-12-04T03:58:13.482Z,17.84
2016-12-04T03:58:45.794Z,17.73
2016-12-04T03:59:18.116Z,17.73
2016-12-04T03:59:50.471Z,17.74
2016-12-04T04:00:22.784Z,17.79
2016-12-04T04:00:55.097Z,17.77
2016-12-04T04:01:27.415Z,17.73
2016-12-04T04:01:59.739Z,17.73
2016-12-04T04:02:32.067Z,17.76
2016-12-04T04:03:04.372Z,17.66
2016-12-04T04:03:36.702Z,17.76
2016-12-04T04:04:09.019Z,17.73
2016-12-04T04:04:41.332Z,17.74
2016-12-04T04:05:13.641Z,17.73
2016-12-04T04:05:45.951Z,17.8
2016-12-04T04:06:18.279Z,17.77
2016-12-04T04:06:50.583Z,17.71
2016-12-04T04:07:22.897Z,17.74
2016-12-04T04:07:55.229Z,17.77
2016-12-04T04:08:27.538Z,17.76
2016-12-04T04:08:59.852Z,17.73
2016-12-04T04:09:32.145Z,17.8
2016-12-04T04:10:04.433Z,17.76
2016-12-04T04:10:36.781Z,17.73
2016-12-04T04:11:09.109Z,17.73
2016-12-04T04:11:41.422Z,17.76
2016-12-04T04:12:13.725Z,17.71
2016-12-04T04:12:46.035Z,17.6
2016-12-04T04:13:18.355Z,17.68
2016-12-04T04:13:50.692Z,17.76
2016-12-04T04:14:22.989Z,17.76
2016-12-04T04:14:55.316Z,17.65
2016-12-04T04:15:27.659Z,17.63
2016-12-04T04:15:59.976Z,17.76
2016-12-04T04:16:32.283Z,17.77
2016-12-04T04:17:04.606Z,17.69
2016-12-04T04:17:36.925Z,17.71
2016-12-04T04:18:09.257Z,17.8
2016-12-04T04:18:41.567Z,17.71
2016-12-04T04:19:13.882Z,17.66
2016-12-04T04:19:46.186Z,17.73
2016-12-04T04:20:18.516Z,17.65
2016-12-04T04:20:50.827Z,17.66
2016-12-04T04:21:23.166Z,17.76
2016-12-04T04:21:55.471Z,17.68
2016-12-04T04:22:27.802Z,17.69
2016-12-04T04:23:00.140Z,17.69
2016-12-04T04:23:32.455Z,17.63
2016-12-04T04:24:04.774Z,17.66
2016-12-04T04:24:37.080Z,17.68
2016-12-04T04:25:09.395Z,17.76
2016-12-04T04:25:41.753Z,17.73
2016-12-04T04:26:14.070Z,17.62
2016-12-04T04:26:46.389Z,17.69
2016-12-04T04:27:18.696Z,17.66
2016-12-04T04:27:51.006Z,17.73
2016-12-04T04:28:23.321Z,17.69
2016-12-04T04:28:55.635Z,17.74
2016-12-04T04:29:27.932Z,17.79
2016-12-04T04:30:00.231Z,17.69
2016-12-04T04:30:32.538Z,17.73
2016-12-04T04:31:04.852Z,17.73
2016-12-04T04:31:37.148Z,17.63
2016-12-04T04:32:09.470Z,17.76
2016-12-04T04:32:41.796Z,17.66
2016-12-04T04:33:14.116Z,17.73
2016-12-04T04:33:46.418Z,17.73
2016-12-04T04:34:18.736Z,17.73
2016-12-04T04:34:51.028Z,17.77
2016-12-04T04:35:23.341Z,17.65
2016-12-04T04:35:55.637Z,17.71
2016-12-04T04:36:27.947Z,17.73
2016-12-04T04:37:00.259Z,17.71
2016-12-04T04:37:32.556Z,17.73
2016-12-04T04:38:04.898Z,17.77
2016-12-04T04:38:37.208Z,17.73
2016-12-04T04:39:09.530Z,17.66
2016-12-04T04:39:41.895Z,17.68
2016-12-04T04:40:14.239Z,17.66
2016-12-04T04:40:46.559Z,17.8
2016-12-04T04:41:18.851Z,17.68
2016-12-04T04:41:51.169Z,17.73
2016-12-04T04:42:23.488Z,17.76
2016-12-04T04:42:55.791Z,17.65
2016-12-04T04:43:28.110Z,17.62
2016-12-04T04:44:00.401Z,17.76
2016-12-04T04:44:32.693Z,17.66
2016-12-04T04:45:05.003Z,17.68
2016-12-04T04:45:37.335Z,17.71
2016-12-04T04:46:09.646Z,17.65
2016-12-04T04:46:41.951Z,17.69
2016-12-04T04:47:14.265Z,17.66
2016-12-04T04:47:46.591Z,17.65
2016-12-04T04:48:18.932Z,17.68
2016-12-04T04:48:51.241Z,17.63
2016-12-04T04:49:23.550Z,17.68
2016-12-04T04:49:55.842Z,17.69
2016-12-04T04:50:28.184Z,17.71
2016-12-04T04:51:00.496Z,17.66
2016-12-04T04:51:32.821Z,17.63
2016-12-04T04:52:05.169Z,17.65
2016-12-04T04:52:37.468Z,17.71
2016-12-04T04:53:09.791Z,17.65
2016-12-04T04:53:42.144Z,17.62
2016-12-04T04:54:14.444Z,17.69
2016-12-04T04:54:46.768Z,17.62
2016-12-04T04:55:19.107Z,17.76
2016-12-04T04:55:51.417Z,17.73
2016-12-04T04:56:23.759Z,17.69
2016-12-04T04:56:56.059Z,17.66
2016-12-04T04:57:28.371Z,17.65
2016-12-04T04:58:00.660Z,17.63
2016-12-04T04:58:32.982Z,17.66
2016-12-04T04:59:05.293Z,17.63
2016-12-04T04:59:37.621Z,17.62
2016-12-04T05:00:09.937Z,17.65
2016-12-04T05:00:42.256Z,17.62
2016-12-04T05:01:14.549Z,17.66
2016-12-04T05:01:46.874Z,17.62
2016-12-04T05:02:19.201Z,17.69
2016-12-04T05:02:51.535Z,17.71
2016-12-04T05:03:23.851Z,17.62
2016-12-04T05:03:56.170Z,17.65
2016-12-04T05:04:28.466Z,17.65
2016-12-04T05:05:00.788Z,17.71
2016-12-04T05:05:33.105Z,17.65
2016-12-04T05:06:05.412Z,17.66
2016-12-04T05:06:37.721Z,17.71
2016-12-04T05:07:10.026Z,17.65
2016-12-04T05:07:42.336Z,17.62
2016-12-04T05:08:14.643Z,17.65
2016-12-04T05:08:46.940Z,17.62
2016-12-04T05:09:19.239Z,17.69
2016-12-04T05:09:51.586Z,17.66
2016-12-04T05:10:23.911Z,17.69
2016-12-04T05:10:56.245Z,17.63
2016-12-04T05:11:28.555Z,17.68
2016-12-04T05:12:00.878Z,17.65
2016-12-04T05:12:33.216Z,17.63
2016-12-04T05:13:05.533Z,17.65
2016-12-04T05:13:37.851Z,17.71
2016-12-04T05:14:10.147Z,17.71
2016-12-04T05:14:42.453Z,17.8
2016-12-04T05:15:14.763Z,17.58
2016-12-04T05:15:47.064Z,17.74
2016-12-04T05:16:19.367Z,17.68
2016-12-04T05:16:51.674Z,17.63
2016-12-04T05:17:23.984Z,17.66
2016-12-04T05:17:56.308Z,17.58
2016-12-04T05:18:28.631Z,17.63
2016-12-04T05:19:00.937Z,17.57
2016-12-04T05:19:33.253Z,17.62
2016-12-04T05:20:05.569Z,17.55
2016-12-04T05:20:37.881Z,17.8
2016-12-04T05:21:10.186Z,17.55
2016-12-04T05:21:42.528Z,17.69
2016-12-04T05:22:14.838Z,17.6
2016-12-04T05:22:47.166Z,17.66
2016-12-04T05:23:19.468Z,17.58
2016-12-04T05:23:51.793Z,17.71
2016-12-04T05:24:24.098Z,17.69
2016-12-04T05:24:56.413Z,17.68
2016-12-04T05:25:28.725Z,17.6
2016-12-04T05:26:01.059Z,17.55
2016-12-04T05:26:33.376Z,17.57
2016-12-04T05:27:05.695Z,17.6
2016-12-04T05:27:38.003Z,17.6
2016-12-04T05:28:10.315Z,17.6
2016-12-04T05:28:42.627Z,17.71
2016-12-04T05:29:14.938Z,17.76
2016-12-04T05:29:47.250Z,17.66
2016-12-04T05:30:19.548Z,17.55
2016-12-04T05:30:51.850Z,17.6
2016-12-04T05:31:24.151Z,17.6
2016-12-04T05:31:56.497Z,17.74
2016-12-04T05:32:28.808Z,17.58
2016-12-04T05:33:01.149Z,17.68
2016-12-04T05:33:33.460Z,17.62
2016-12-04T05:34:05.844Z,17.71
2016-12-04T05:34:38.142Z,17.55
2016-12-04T05:35:10.507Z,17.71
2016-12-04T05:35:42.841Z,17.6
2016-12-04T05:36:15.142Z,17.71
2016-12-04T05:36:47.457Z,17.74
2016-12-04T05:37:19.780Z,17.63
2016-12-04T05:37:52.102Z,17.57
2016-12-04T05:38:24.412Z,17.6
2016-12-04T05:38:56.747Z,17.62
2016-12-04T05:39:29.046Z,17.68
2016-12-04T05:40:01.357Z,17.6
2016-12-04T05:40:33.687Z,17.71
2016-12-04T05:41:05.994Z,17.71
2016-12-04T05:41:38.317Z,17.57
2016-12-04T05:42:10.610Z,17.58
2016-12-04T05:42:42.919Z,17.68
2016-12-04T05:43:15.240Z,17.63
2016-12-04T05:43:47.572Z,17.58
2016-12-04T05:44:19.897Z,17.54
2016-12-04T05:44:52.185Z,17.6
2016-12-04T05:45:24.515Z,17.69
2016-12-04T05:45:56.828Z,17.54
2016-12-04T05:46:29.135Z,17.69
2016-12-04T05:47:01.452Z,17.63
2016-12-04T05:47:33.756Z,17.55
2016-12-04T05:48:06.068Z,17.57
2016-12-04T05:48:38.382Z,17.6
2016-12-04T05:49:10.691Z,17.58
2016-12-04T05:49:42.997Z,17.71
2016-12-04T05:50:15.307Z,17.68
2016-12-04T05:50:47.611Z,17.71
2016-12-04T05:51:19.920Z,17.76
2016-12-04T05:51:52.224Z,17.71
2016-12-04T05:52:24.535Z,17.55
2016-12-04T05:52:56.838Z,17.66
2016-12-04T05:53:29.154Z,17.55
2016-12-04T05:54:01.453Z,17.71
2016-12-04T05:54:33.767Z,17.62
2016-12-04T05:55:06.075Z,17.58
2016-12-04T05:55:38.405Z,17.69
2016-12-04T05:56:10.696Z,17.63
2016-12-04T05:56:43.035Z,17.71
2016-12-04T05:57:15.348Z,17.58
2016-12-04T05:57:47.667Z,17.77
2016-12-04T05:58:19.966Z,17.66
2016-12-04T05:58:52.276Z,17.58
2016-12-04T05:59:24.619Z,17.62
2016-12-04T05:59:56.915Z,17.63
2016-12-04T06:00:29.242Z,17.55
2016-12-04T06:01:01.565Z,17.6
2016-12-04T06:01:33.892Z,17.65
2016-12-04T06:02:06.212Z,17.63
2016-12-04T06:02:38.522Z,17.58
2016-12-04T06:03:10.846Z,17.74
2016-12-04T06:03:43.154Z,17.58
2016-12-04T06:04:15.485Z,17.69
2016-12-04T06:04:47.806Z,17.57
2016-12-04T06:05:20.123Z,17.66
2016-12-04T06:05:52.443Z,17.55
2016-12-04T06:06:24.780Z,17.66
2016-12-04T06:06:57.101Z,17.6
2016-12-04T06:07:29.417Z,17.71
2016-12-04T06:08:01.755Z,17.6
2016-12-04T06:08:34.078Z,17.6
2016-12-04T06:09:06.388Z,17.62
2016-12-04T06:09:38.741Z,17.74
2016-12-04T06:10:11.054Z,17.71
2016-12-04T06:10:43.360Z,17.6
2016-12-04T06:11:15.685Z,17.73
2016-12-04T06:11:47.989Z,17.74
2016-12-04T06:12:20.295Z,17.73
2016-12-04T06:12:52.609Z,17.71
2016-12-04T06:13:24.928Z,17.6
2016-12-04T06:13:57.235Z,17.57
2016-12-04T06:14:29.543Z,17.71
2016-12-04T06:15:01.865Z,17.69
2016-12-04T06:15:34.180Z,17.58
2016-12-04T06:16:06.489Z,17.55
2016-12-04T06:16:38.813Z,17.58
2016-12-04T06:17:11.128Z,17.58
2016-12-04T06:17:43.415Z,17.68
2016-12-04T06:18:15.718Z,17.65
2016-12-04T06:18:48.036Z,17.6
2016-12-04T06:19:20.360Z,17.57
2016-12-04T06:19:52.692Z,17.71
2016-12-04T06:20:25.014Z,17.63
2016-12-04T06:20:57.311Z,17.69
2016-12-04T06:21:29.621Z,17.66
2016-12-04T06:22:01.955Z,17.71
2016-12-04T06:22:34.271Z,17.62
2016-12-04T06:23:06.597Z,17.6
2016-12-04T06:23:38.887Z,17.58
2016-12-04T06:24:11.235Z,17.62
2016-12-04T06:24:43.544Z,17.54
2016-12-04T06:25:15.873Z,17.57
2016-12-04T06:25:48.197Z,17.58
2016-12-04T06:26:20.512Z,17.66
2016-12-04T06:26:52.821Z,17.58
2016-12-04T06:27:25.141Z,17.62
2016-12-04T06:27:57.446Z,17.62
2016-12-04T06:28:29.749Z,17.57
2016-12-04T06:29:02.051Z,17.6
2016-12-04T06:29:34.374Z,17.6
2016-12-04T06:30:06.686Z,17.55
2016-12-04T06:30:39.006Z,17.68
2016-12-04T06:31:11.337Z,17.73
2016-12-04T06:31:43.636Z,17.71
2016-12-04T06:32:15.945Z,17.55
2016-12-04T06:32:48.243Z,17.54
2016-12-04T06:33:20.560Z,17.54
2016-12-04T06:33:52.875Z,17.58
2016-12-04T06:34:25.229Z,17.58
2016-12-04T06:34:57.548Z,17.57
2016-12-04T06:35:29.880Z,17.58
2016-12-04T06:36:02.190Z,17.54
2016-12-04T06:36:34.533Z,17.63
2016-12-04T06:37:06.845Z,17.58
2016-12-04T06:37:39.163Z,17.6
2016-12-04T06:38:11.459Z,17.71
2016-12-04T06:38:43.761Z,17.65
2016-12-04T06:39:16.058Z,17.6
2016-12-04T06:39:48.375Z,17.62
2016-12-04T06:40:20.689Z,17.66
2016-12-04T06:40:53.017Z,17.57
2016-12-04T06:41:25.346Z,17.69
2016-12-04T06:41:57.663Z,17.76
2016-12-04T06:42:29.956Z,17.74
2016-12-04T06:43:02.268Z,17.69
2016-12-04T06:43:34.560Z,17.63
2016-12-04T06:44:06.863Z,17.71
2016-12-04T06:44:39.197Z,17.58
2016-12-04T06:45:11.499Z,17.62
2016-12-04T06:45:43.823Z,17.71
2016-12-04T06:46:16.138Z,17.71
2016-12-04T06:46:48.486Z,17.55
2016-12-04T06:47:20.792Z,17.57
2016-12-04T06:47:53.113Z,17.74
2016-12-04T06:48:25.433Z,17.5
2016-12-04T06:48:57.744Z,17.63
2016-12-04T06:49:30.045Z,17.57
2016-12-04T06:50:02.372Z,17.57
2016-12-04T06:50:34.693Z,17.71
2016-12-04T06:51:07.017Z,17.71
2016-12-04T06:51:39.362Z,17.6
2016-12-04T06:52:11.669Z,17.57
2016-12-04T06:52:43.990Z,17.66
2016-12-04T06:53:16.279Z,17.73
2016-12-04T06:53:48.593Z,17.57
2016-12-04T06:54:20.887Z,17.68
2016-12-04T06:54:53.207Z,17.71
2016-12-04T06:55:25.523Z,17.68
2016-12-04T06:55:57.874Z,17.71
2016-12-04T06:56:30.185Z,17.57
2016-12-04T06:57:02.496Z,17.62
2016-12-04T06:57:34.839Z,17.68